sensor_id;sensor_type;location;lat;lon;timestamp;P1;durP1;ratioP1;P2;durP2;ratioP2
37107;SDS011;23019;49.300;6.846;2022-10-16T00:01:46;13.10;;;11.80;;
37107;SDS011;23019;49.300;6.846;2022-10-16T00:03:47;14.15;;;12.27;;
37107;SDS011;23019;49.300;6.846;2022-10-16T00:05:49;13.75;;;11.95;;
37107;SDS011;23019;49.300;6.846;2022-10-16T00:07:50;13.85;;;12.45;;
37107;SDS011;23019;49.300;6.846;2022-10-16T00:09:51;12.68;;;11.55;;
37107;SDS011;23019;49.300;6.846;2022-10-16T00:11:52;14.32;;;11.68;;
37107;SDS011;23019;49.300;6.846;2022-10-16T00:13:54;12.80;;;11.50;;
37107;SDS011;23019;49.300;6.846;2022-10-16T00:15:57;12.65;;;11.50;;
37107;SDS011;23019;49.300;6.846;2022-10-16T00:17:59;12.73;;;11.52;;
37107;SDS011;23019;49.300;6.846;2022-10-16T00:20:00;13.23;;;11.98;;
37107;SDS011;23019;49.300;6.846;2022-10-16T00:22:01;13.63;;;12.25;;
37107;SDS011;23019;49.300;6.846;2022-10-16T00:24:03;12.05;;;10.95;;
37107;SDS011;23019;49.300;6.846;2022-10-16T00:26:07;13.50;;;11.98;;
37107;SDS011;23019;49.300;6.846;2022-10-16T00:28:10;12.30;;;11.20;;
37107;SDS011;23019;49.300;6.846;2022-10-16T00:30:11;12.65;;;11.35;;
37107;SDS011;23019;49.300;6.846;2022-10-16T00:32:12;12.25;;;11.13;;
37107;SDS011;23019;49.300;6.846;2022-10-16T00:34:13;12.82;;;11.63;;
37107;SDS011;23019;49.300;6.846;2022-10-16T00:36:15;12.05;;;10.95;;
37107;SDS011;23019;49.300;6.846;2022-10-16T00:38:18;12.13;;;11.02;;
37107;SDS011;23019;49.300;6.846;2022-10-16T00:40:18;12.48;;;11.32;;
37107;SDS011;23019;49.300;6.846;2022-10-16T00:42:19;12.75;;;11.63;;
37107;SDS011;23019;49.300;6.846;2022-10-16T00:46:59;11.95;;;10.85;;
37107;SDS011;23019;49.300;6.846;2022-10-16T00:49:05;11.77;;;10.50;;
37107;SDS011;23019;49.300;6.846;2022-10-16T00:51:10;11.70;;;10.52;;
37107;SDS011;23019;49.300;6.846;2022-10-16T00:53:11;20.45;;;11.70;;
37107;SDS011;23019;49.300;6.846;2022-10-16T00:55:12;11.73;;;10.48;;
37107;SDS011;23019;49.300;6.846;2022-10-16T00:57:13;11.35;;;10.25;;
37107;SDS011;23019;49.300;6.846;2022-10-16T00:59:25;11.32;;;10.32;;
37107;SDS011;23019;49.300;6.846;2022-10-16T01:01:28;11.32;;;10.15;;
37107;SDS011;23019;49.300;6.846;2022-10-16T01:03:30;12.60;;;11.35;;
37107;SDS011;23019;49.300;6.846;2022-10-16T01:05:39;11.75;;;10.52;;
37107;SDS011;23019;49.300;6.846;2022-10-16T01:10:35;11.32;;;10.23;;
37107;SDS011;23019;49.300;6.846;2022-10-16T01:14:58;11.65;;;10.55;;
37107;SDS011;23019;49.300;6.846;2022-10-16T01:17:09;10.75;;;9.75;;
37107;SDS011;23019;49.300;6.846;2022-10-16T01:21:40;10.60;;;9.70;;
37107;SDS011;23019;49.300;6.846;2022-10-16T01:28:17;11.15;;;10.15;;
37107;SDS011;23019;49.300;6.846;2022-10-16T01:30:26;10.60;;;9.70;;
37107;SDS011;23019;49.300;6.846;2022-10-16T01:32:36;11.57;;;10.38;;
37107;SDS011;23019;49.300;6.846;2022-10-16T01:37:20;10.43;;;9.48;;
37107;SDS011;23019;49.300;6.846;2022-10-16T01:39:29;10.15;;;9.30;;
37107;SDS011;23019;49.300;6.846;2022-10-16T01:41:33;10.10;;;9.27;;
37107;SDS011;23019;49.300;6.846;2022-10-16T01:43:40;10.48;;;9.48;;
37107;SDS011;23019;49.300;6.846;2022-10-16T01:45:49;10.13;;;9.13;;
37107;SDS011;23019;49.300;6.846;2022-10-16T01:47:51;10.45;;;9.40;;
37107;SDS011;23019;49.300;6.846;2022-10-16T01:49:53;10.77;;;9.77;;
37107;SDS011;23019;49.300;6.846;2022-10-16T01:51:56;12.73;;;10.00;;
37107;SDS011;23019;49.300;6.846;2022-10-16T01:54:02;10.23;;;9.23;;
37107;SDS011;23019;49.300;6.846;2022-10-16T01:56:08;10.77;;;9.80;;
37107;SDS011;23019;49.300;6.846;2022-10-16T01:58:11;9.98;;;9.07;;
37107;SDS011;23019;49.300;6.846;2022-10-16T02:00:13;9.77;;;8.98;;
37107;SDS011;23019;49.300;6.846;2022-10-16T02:02:19;10.25;;;9.35;;
37107;SDS011;23019;49.300;6.846;2022-10-16T02:04:23;8.93;;;8.23;;
37107;SDS011;23019;49.300;6.846;2022-10-16T02:06:29;9.63;;;8.82;;
37107;SDS011;23019;49.300;6.846;2022-10-16T02:08:30;10.02;;;9.27;;
37107;SDS011;23019;49.300;6.846;2022-10-16T02:10:31;10.25;;;9.35;;
37107;SDS011;23019;49.300;6.846;2022-10-16T02:12:35;9.45;;;8.60;;
37107;SDS011;23019;49.300;6.846;2022-10-16T02:14:39;9.38;;;8.48;;
37107;SDS011;23019;49.300;6.846;2022-10-16T02:16:41;9.70;;;8.80;;
37107;SDS011;23019;49.300;6.846;2022-10-16T02:18:45;9.20;;;8.40;;
37107;SDS011;23019;49.300;6.846;2022-10-16T02:20:53;9.88;;;9.07;;
37107;SDS011;23019;49.300;6.846;2022-10-16T02:23:08;10.00;;;8.40;;
37107;SDS011;23019;49.300;6.846;2022-10-16T02:25:35;8.80;;;7.93;;
37107;SDS011;23019;49.300;6.846;2022-10-16T02:29:54;10.15;;;8.27;;
37107;SDS011;23019;49.300;6.846;2022-10-16T02:32:01;9.20;;;8.40;;
37107;SDS011;23019;49.300;6.846;2022-10-16T02:34:04;8.55;;;7.95;;
37107;SDS011;23019;49.300;6.846;2022-10-16T02:36:06;8.73;;;8.07;;
37107;SDS011;23019;49.300;6.846;2022-10-16T02:38:08;8.23;;;7.63;;
37107;SDS011;23019;49.300;6.846;2022-10-16T02:40:10;9.90;;;9.00;;
37107;SDS011;23019;49.300;6.846;2022-10-16T02:42:12;9.18;;;8.40;;
37107;SDS011;23019;49.300;6.846;2022-10-16T02:44:14;8.60;;;7.85;;
37107;SDS011;23019;49.300;6.846;2022-10-16T02:46:15;8.85;;;8.15;;
37107;SDS011;23019;49.300;6.846;2022-10-16T02:48:17;8.68;;;7.97;;
37107;SDS011;23019;49.300;6.846;2022-10-16T02:50:18;8.98;;;8.25;;
37107;SDS011;23019;49.300;6.846;2022-10-16T02:52:19;9.40;;;8.55;;
37107;SDS011;23019;49.300;6.846;2022-10-16T02:54:19;8.95;;;8.10;;
37107;SDS011;23019;49.300;6.846;2022-10-16T02:56:20;8.48;;;7.80;;
37107;SDS011;23019;49.300;6.846;2022-10-16T02:58:21;8.68;;;7.93;;
37107;SDS011;23019;49.300;6.846;2022-10-16T03:00:22;7.57;;;6.97;;
37107;SDS011;23019;49.300;6.846;2022-10-16T03:02:23;8.52;;;7.72;;
37107;SDS011;23019;49.300;6.846;2022-10-16T03:04:24;8.65;;;7.88;;
37107;SDS011;23019;49.300;6.846;2022-10-16T03:06:25;8.40;;;7.80;;
37107;SDS011;23019;49.300;6.846;2022-10-16T03:08:25;8.85;;;8.15;;
37107;SDS011;23019;49.300;6.846;2022-10-16T03:10:26;9.27;;;8.57;;
37107;SDS011;23019;49.300;6.846;2022-10-16T03:12:28;8.00;;;7.22;;
37107;SDS011;23019;49.300;6.846;2022-10-16T03:14:29;7.85;;;7.35;;
37107;SDS011;23019;49.300;6.846;2022-10-16T03:16:29;7.78;;;7.28;;
37107;SDS011;23019;49.300;6.846;2022-10-16T03:18:30;7.88;;;7.28;;
37107;SDS011;23019;49.300;6.846;2022-10-16T03:20:31;7.97;;;7.28;;
37107;SDS011;23019;49.300;6.846;2022-10-16T03:22:32;9.10;;;8.25;;
37107;SDS011;23019;49.300;6.846;2022-10-16T03:24:33;7.65;;;7.13;;
37107;SDS011;23019;49.300;6.846;2022-10-16T03:26:34;7.93;;;7.22;;
37107;SDS011;23019;49.300;6.846;2022-10-16T03:28:34;8.07;;;7.38;;
37107;SDS011;23019;49.300;6.846;2022-10-16T03:30:35;7.72;;;7.00;;
37107;SDS011;23019;49.300;6.846;2022-10-16T03:32:36;7.63;;;7.03;;
37107;SDS011;23019;49.300;6.846;2022-10-16T03:34:37;7.47;;;6.97;;
37107;SDS011;23019;49.300;6.846;2022-10-16T03:36:37;7.45;;;6.95;;
37107;SDS011;23019;49.300;6.846;2022-10-16T03:38:38;8.40;;;7.75;;
37107;SDS011;23019;49.300;6.846;2022-10-16T03:40:39;7.10;;;6.60;;
37107;SDS011;23019;49.300;6.846;2022-10-16T03:42:40;7.45;;;6.85;;
37107;SDS011;23019;49.300;6.846;2022-10-16T03:44:42;8.20;;;7.60;;
37107;SDS011;23019;49.300;6.846;2022-10-16T03:46:42;8.13;;;7.53;;
37107;SDS011;23019;49.300;6.846;2022-10-16T03:48:43;6.88;;;6.38;;
37107;SDS011;23019;49.300;6.846;2022-10-16T03:50:44;7.53;;;6.88;;
37107;SDS011;23019;49.300;6.846;2022-10-16T03:52:45;7.22;;;6.72;;
37107;SDS011;23019;49.300;6.846;2022-10-16T03:54:45;7.30;;;6.80;;
37107;SDS011;23019;49.300;6.846;2022-10-16T03:56:46;6.88;;;6.38;;
37107;SDS011;23019;49.300;6.846;2022-10-16T03:58:47;6.63;;;6.22;;
37107;SDS011;23019;49.300;6.846;2022-10-16T04:00:48;7.63;;;6.97;;
37107;SDS011;23019;49.300;6.846;2022-10-16T04:02:48;7.25;;;6.75;;
37107;SDS011;23019;49.300;6.846;2022-10-16T04:04:49;7.13;;;6.60;;
37107;SDS011;23019;49.300;6.846;2022-10-16T04:06:50;7.28;;;6.55;;
37107;SDS011;23019;49.300;6.846;2022-10-16T04:08:51;7.03;;;6.43;;
37107;SDS011;23019;49.300;6.846;2022-10-16T04:10:52;7.07;;;6.50;;
37107;SDS011;23019;49.300;6.846;2022-10-16T04:12:52;7.72;;;7.13;;
37107;SDS011;23019;49.300;6.846;2022-10-16T04:14:55;6.95;;;6.53;;
37107;SDS011;23019;49.300;6.846;2022-10-16T04:16:56;7.47;;;6.97;;
37107;SDS011;23019;49.300;6.846;2022-10-16T04:18:57;7.82;;;6.35;;
37107;SDS011;23019;49.300;6.846;2022-10-16T04:21:06;6.97;;;6.40;;
37107;SDS011;23019;49.300;6.846;2022-10-16T04:23:07;6.90;;;6.50;;
37107;SDS011;23019;49.300;6.846;2022-10-16T04:25:08;6.57;;;6.07;;
37107;SDS011;23019;49.300;6.846;2022-10-16T04:27:09;6.10;;;5.70;;
37107;SDS011;23019;49.300;6.846;2022-10-16T04:29:10;7.22;;;6.50;;
37107;SDS011;23019;49.300;6.846;2022-10-16T04:31:10;6.63;;;6.03;;
37107;SDS011;23019;49.300;6.846;2022-10-16T04:33:11;7.10;;;6.50;;
37107;SDS011;23019;49.300;6.846;2022-10-16T04:35:16;6.72;;;6.18;;
37107;SDS011;23019;49.300;6.846;2022-10-16T04:37:26;6.18;;;5.78;;
37107;SDS011;23019;49.300;6.846;2022-10-16T04:39:27;6.10;;;5.68;;
37107;SDS011;23019;49.300;6.846;2022-10-16T04:41:28;6.95;;;6.38;;
37107;SDS011;23019;49.300;6.846;2022-10-16T04:43:29;7.25;;;6.63;;
37107;SDS011;23019;49.300;6.846;2022-10-16T04:45:29;5.80;;;5.50;;
37107;SDS011;23019;49.300;6.846;2022-10-16T04:47:30;6.35;;;5.85;;
37107;SDS011;23019;49.300;6.846;2022-10-16T04:49:31;6.57;;;6.10;;
37107;SDS011;23019;49.300;6.846;2022-10-16T04:51:32;6.10;;;5.70;;
37107;SDS011;23019;49.300;6.846;2022-10-16T04:53:33;6.70;;;6.20;;
37107;SDS011;23019;49.300;6.846;2022-10-16T04:55:34;7.90;;;6.22;;
37107;SDS011;23019;49.300;6.846;2022-10-16T04:57:35;6.82;;;6.20;;
37107;SDS011;23019;49.300;6.846;2022-10-16T04:59:35;6.18;;;5.78;;
37107;SDS011;23019;49.300;6.846;2022-10-16T05:01:36;6.20;;;5.80;;
37107;SDS011;23019;49.300;6.846;2022-10-16T05:03:37;6.05;;;5.57;;
37107;SDS011;23019;49.300;6.846;2022-10-16T05:05:41;6.10;;;5.70;;
37107;SDS011;23019;49.300;6.846;2022-10-16T05:07:46;7.03;;;6.32;;
37107;SDS011;23019;49.300;6.846;2022-10-16T05:09:47;6.70;;;6.18;;
37107;SDS011;23019;49.300;6.846;2022-10-16T05:11:48;6.75;;;6.18;;
37107;SDS011;23019;49.300;6.846;2022-10-16T05:13:49;5.78;;;5.38;;
37107;SDS011;23019;49.300;6.846;2022-10-16T05:15:50;5.97;;;5.57;;
37107;SDS011;23019;49.300;6.846;2022-10-16T05:17:53;6.07;;;5.68;;
37107;SDS011;23019;49.300;6.846;2022-10-16T05:19:55;5.30;;;4.97;;
37107;SDS011;23019;49.300;6.846;2022-10-16T05:21:56;6.50;;;6.00;;
37107;SDS011;23019;49.300;6.846;2022-10-16T05:23:56;6.20;;;5.78;;
37107;SDS011;23019;49.300;6.846;2022-10-16T05:25:58;5.80;;;5.32;;
37107;SDS011;23019;49.300;6.846;2022-10-16T05:27:59;5.25;;;4.90;;
37107;SDS011;23019;49.300;6.846;2022-10-16T05:30:00;5.85;;;5.40;;
37107;SDS011;23019;49.300;6.846;2022-10-16T05:32:01;5.03;;;4.72;;
37107;SDS011;23019;49.300;6.846;2022-10-16T05:34:02;6.65;;;6.15;;
37107;SDS011;23019;49.300;6.846;2022-10-16T05:36:06;6.05;;;5.65;;
37107;SDS011;23019;49.300;6.846;2022-10-16T05:38:09;5.55;;;5.25;;
37107;SDS011;23019;49.300;6.846;2022-10-16T05:40:09;6.18;;;5.75;;
37107;SDS011;23019;49.300;6.846;2022-10-16T05:42:11;5.90;;;5.35;;
37107;SDS011;23019;49.300;6.846;2022-10-16T05:44:11;5.97;;;5.57;;
37107;SDS011;23019;49.300;6.846;2022-10-16T05:46:12;5.78;;;5.35;;
37107;SDS011;23019;49.300;6.846;2022-10-16T05:48:13;5.88;;;5.38;;
37107;SDS011;23019;49.300;6.846;2022-10-16T05:50:14;4.93;;;4.63;;
37107;SDS011;23019;49.300;6.846;2022-10-16T05:52:14;6.10;;;5.50;;
37107;SDS011;23019;49.300;6.846;2022-10-16T05:54:15;4.75;;;4.50;;
37107;SDS011;23019;49.300;6.846;2022-10-16T05:56:19;5.03;;;4.28;;
37107;SDS011;23019;49.300;6.846;2022-10-16T05:58:20;5.07;;;4.78;;
37107;SDS011;23019;49.300;6.846;2022-10-16T06:00:22;5.28;;;4.95;;
37107;SDS011;23019;49.300;6.846;2022-10-16T06:02:22;5.20;;;4.88;;
37107;SDS011;23019;49.300;6.846;2022-10-16T06:04:23;5.15;;;4.85;;
37107;SDS011;23019;49.300;6.846;2022-10-16T06:06:27;6.15;;;5.70;;
37107;SDS011;23019;49.300;6.846;2022-10-16T06:08:29;5.07;;;4.78;;
37107;SDS011;23019;49.300;6.846;2022-10-16T06:10:32;4.95;;;4.28;;
37107;SDS011;23019;49.300;6.846;2022-10-16T06:12:32;5.55;;;5.15;;
37107;SDS011;23019;49.300;6.846;2022-10-16T06:14:33;4.78;;;4.47;;
37107;SDS011;23019;49.300;6.846;2022-10-16T06:16:35;4.90;;;4.60;;
37107;SDS011;23019;49.300;6.846;2022-10-16T06:18:37;5.03;;;4.72;;
37107;SDS011;23019;49.300;6.846;2022-10-16T06:20:38;4.75;;;4.45;;
37107;SDS011;23019;49.300;6.846;2022-10-16T06:22:38;4.85;;;4.45;;
37107;SDS011;23019;49.300;6.846;2022-10-16T06:24:39;5.03;;;4.72;;
37107;SDS011;23019;49.300;6.846;2022-10-16T06:26:40;4.63;;;4.32;;
37107;SDS011;23019;49.300;6.846;2022-10-16T06:28:41;5.10;;;4.80;;
37107;SDS011;23019;49.300;6.846;2022-10-16T06:30:42;6.47;;;4.25;;
37107;SDS011;23019;49.300;6.846;2022-10-16T06:32:43;5.18;;;4.88;;
37107;SDS011;23019;49.300;6.846;2022-10-16T06:34:47;4.90;;;4.10;;
37107;SDS011;23019;49.300;6.846;2022-10-16T06:36:48;4.95;;;4.55;;
37107;SDS011;23019;49.300;6.846;2022-10-16T06:38:48;5.47;;;4.72;;
37107;SDS011;23019;49.300;6.846;2022-10-16T06:40:49;4.80;;;4.50;;
37107;SDS011;23019;49.300;6.846;2022-10-16T06:42:50;4.88;;;4.57;;
37107;SDS011;23019;49.300;6.846;2022-10-16T06:44:52;4.72;;;4.43;;
37107;SDS011;23019;49.300;6.846;2022-10-16T06:46:53;5.47;;;5.07;;
37107;SDS011;23019;49.300;6.846;2022-10-16T06:48:53;4.93;;;4.63;;
37107;SDS011;23019;49.300;6.846;2022-10-16T06:51:01;5.30;;;5.00;;
37107;SDS011;23019;49.300;6.846;2022-10-16T06:53:02;5.00;;;4.68;;
37107;SDS011;23019;49.300;6.846;2022-10-16T06:55:03;4.32;;;4.03;;
37107;SDS011;23019;49.300;6.846;2022-10-16T06:57:04;4.28;;;4.03;;
37107;SDS011;23019;49.300;6.846;2022-10-16T06:59:05;4.78;;;4.47;;
37107;SDS011;23019;49.300;6.846;2022-10-16T07:01:06;4.30;;;4.00;;
37107;SDS011;23019;49.300;6.846;2022-10-16T07:03:08;5.13;;;4.70;;
37107;SDS011;23019;49.300;6.846;2022-10-16T07:05:09;5.07;;;4.78;;
37107;SDS011;23019;49.300;6.846;2022-10-16T07:07:09;4.20;;;4.00;;
37107;SDS011;23019;49.300;6.846;2022-10-16T07:09:10;4.47;;;4.28;;
37107;SDS011;23019;49.300;6.846;2022-10-16T07:11:12;4.90;;;4.55;;
37107;SDS011;23019;49.300;6.846;2022-10-16T07:13:14;5.00;;;4.68;;
37107;SDS011;23019;49.300;6.846;2022-10-16T07:15:15;4.85;;;4.55;;
37107;SDS011;23019;49.300;6.846;2022-10-16T07:17:16;4.72;;;4.32;;
37107;SDS011;23019;49.300;6.846;2022-10-16T07:19:17;4.30;;;4.00;;
37107;SDS011;23019;49.300;6.846;2022-10-16T07:21:18;4.30;;;4.00;;
37107;SDS011;23019;49.300;6.846;2022-10-16T07:23:20;4.63;;;4.32;;
37107;SDS011;23019;49.300;6.846;2022-10-16T07:25:21;4.20;;;4.00;;
37107;SDS011;23019;49.300;6.846;2022-10-16T07:27:22;4.82;;;4.53;;
37107;SDS011;23019;49.300;6.846;2022-10-16T07:29:24;4.80;;;3.67;;
37107;SDS011;23019;49.300;6.846;2022-10-16T07:31:24;4.05;;;3.75;;
37107;SDS011;23019;49.300;6.846;2022-10-16T07:33:25;4.75;;;4.45;;
37107;SDS011;23019;49.300;6.846;2022-10-16T07:35:26;4.68;;;4.38;;
37107;SDS011;23019;49.300;6.846;2022-10-16T07:37:30;5.55;;;5.00;;
37107;SDS011;23019;49.300;6.846;2022-10-16T07:39:37;4.57;;;4.28;;
37107;SDS011;23019;49.300;6.846;2022-10-16T07:41:41;4.03;;;3.72;;
37107;SDS011;23019;49.300;6.846;2022-10-16T07:44:01;4.35;;;3.75;;
37107;SDS011;23019;49.300;6.846;2022-10-16T07:46:02;11.38;;;4.72;;
37107;SDS011;23019;49.300;6.846;2022-10-16T07:48:03;7.32;;;4.30;;
37107;SDS011;23019;49.300;6.846;2022-10-16T07:50:50;5.25;;;3.70;;
37107;SDS011;23019;49.300;6.846;2022-10-16T07:52:50;7.85;;;4.38;;
37107;SDS011;23019;49.300;6.846;2022-10-16T08:07:20;5.35;;;4.32;;
37107;SDS011;23019;49.300;6.846;2022-10-16T08:23:29;4.20;;;3.90;;
37107;SDS011;23019;49.300;6.846;2022-10-16T08:25:35;4.00;;;3.80;;
37107;SDS011;23019;49.300;6.846;2022-10-16T08:27:39;4.13;;;3.80;;
37107;SDS011;23019;49.300;6.846;2022-10-16T08:29:39;5.13;;;4.82;;
37107;SDS011;23019;49.300;6.846;2022-10-16T09:26:58;4.28;;;3.97;;
37107;SDS011;23019;49.300;6.846;2022-10-16T09:32:43;4.45;;;4.15;;
37107;SDS011;23019;49.300;6.846;2022-10-16T09:51:00;2.97;;;2.78;;
37107;SDS011;23019;49.300;6.846;2022-10-16T10:07:16;3.50;;;3.30;;
37107;SDS011;23019;49.300;6.846;2022-10-16T10:15:02;3.30;;;3.10;;
37107;SDS011;23019;49.300;6.846;2022-10-16T10:17:45;3.60;;;3.30;;
37107;SDS011;23019;49.300;6.846;2022-10-16T10:24:40;3.58;;;3.28;;
37107;SDS011;23019;49.300;6.846;2022-10-16T11:30:27;2.97;;;2.75;;
37107;SDS011;23019;49.300;6.846;2022-10-16T11:35:11;4.75;;;3.55;;
37107;SDS011;23019;49.300;6.846;2022-10-16T11:37:26;3.43;;;2.80;;
37107;SDS011;23019;49.300;6.846;2022-10-16T11:39:32;2.97;;;2.78;;
37107;SDS011;23019;49.300;6.846;2022-10-16T11:46:36;3.47;;;2.75;;
37107;SDS011;23019;49.300;6.846;2022-10-16T11:53:54;3.25;;;3.05;;
37107;SDS011;23019;49.300;6.846;2022-10-16T11:56:02;2.78;;;2.65;;
37107;SDS011;23019;49.300;6.846;2022-10-16T11:58:06;3.58;;;3.38;;
37107;SDS011;23019;49.300;6.846;2022-10-16T12:05:36;3.22;;;3.03;;
37107;SDS011;23019;49.300;6.846;2022-10-16T12:08:14;3.30;;;3.10;;
37107;SDS011;23019;49.300;6.846;2022-10-16T12:10:24;2.95;;;2.75;;
37107;SDS011;23019;49.300;6.846;2022-10-16T12:12:28;3.50;;;3.30;;
37107;SDS011;23019;49.300;6.846;2022-10-16T12:14:39;3.55;;;3.25;;
37107;SDS011;23019;49.300;6.846;2022-10-16T12:19:13;3.22;;;3.03;;
37107;SDS011;23019;49.300;6.846;2022-10-16T12:21:19;2.90;;;2.75;;
37107;SDS011;23019;49.300;6.846;2022-10-16T12:23:31;3.25;;;3.05;;
37107;SDS011;23019;49.300;6.846;2022-10-16T12:25:53;3.08;;;2.88;;
37107;SDS011;23019;49.300;6.846;2022-10-16T12:28:15;3.00;;;2.80;;
37107;SDS011;23019;49.300;6.846;2022-10-16T12:30:22;3.25;;;3.05;;
37107;SDS011;23019;49.300;6.846;2022-10-16T12:32:27;3.30;;;3.10;;
37107;SDS011;23019;49.300;6.846;2022-10-16T12:36:35;2.47;;;2.28;;
37107;SDS011;23019;49.300;6.846;2022-10-16T12:38:47;3.40;;;3.20;;
37107;SDS011;23019;49.300;6.846;2022-10-16T12:41:02;2.95;;;2.75;;
37107;SDS011;23019;49.300;6.846;2022-10-16T12:45:33;2.85;;;2.67;;
37107;SDS011;23019;49.300;6.846;2022-10-16T12:47:36;2.75;;;2.60;;
37107;SDS011;23019;49.300;6.846;2022-10-16T12:49:47;2.95;;;2.75;;
37107;SDS011;23019;49.300;6.846;2022-10-16T12:52:04;3.05;;;2.85;;
37107;SDS011;23019;49.300;6.846;2022-10-16T12:54:37;4.28;;;2.80;;
37107;SDS011;23019;49.300;6.846;2022-10-16T13:11:19;3.15;;;2.65;;
37107;SDS011;23019;49.300;6.846;2022-10-16T13:15:57;2.58;;;2.47;;
37107;SDS011;23019;49.300;6.846;2022-10-16T13:18:21;2.70;;;2.60;;
37107;SDS011;23019;49.300;6.846;2022-10-16T13:30:01;2.58;;;2.42;;
37107;SDS011;23019;49.300;6.846;2022-10-16T13:32:14;2.78;;;2.58;;
37107;SDS011;23019;49.300;6.846;2022-10-16T13:34:18;2.22;;;2.13;;
37107;SDS011;23019;49.300;6.846;2022-10-16T13:36:22;2.28;;;2.08;;
37107;SDS011;23019;49.300;6.846;2022-10-16T13:38:31;2.50;;;2.30;;
37107;SDS011;23019;49.300;6.846;2022-10-16T13:40:35;2.92;;;2.67;;
37107;SDS011;23019;49.300;6.846;2022-10-16T13:42:36;3.03;;;2.83;;
37107;SDS011;23019;49.300;6.846;2022-10-16T13:44:43;2.22;;;2.13;;
37107;SDS011;23019;49.300;6.846;2022-10-16T13:46:47;3.00;;;2.80;;
37107;SDS011;23019;49.300;6.846;2022-10-16T13:48:59;2.55;;;2.45;;
37107;SDS011;23019;49.300;6.846;2022-10-16T13:51:17;2.25;;;2.15;;
37107;SDS011;23019;49.300;6.846;2022-10-16T13:53:18;2.75;;;2.55;;
37107;SDS011;23019;49.300;6.846;2022-10-16T13:55:19;2.92;;;2.72;;
37107;SDS011;23019;49.300;6.846;2022-10-16T13:57:21;2.72;;;2.53;;
37107;SDS011;23019;49.300;6.846;2022-10-16T13:59:26;2.40;;;2.30;;
37107;SDS011;23019;49.300;6.846;2022-10-16T14:01:40;2.70;;;2.50;;
37107;SDS011;23019;49.300;6.846;2022-10-16T14:04:06;2.40;;;2.30;;
37107;SDS011;23019;49.300;6.846;2022-10-16T14:10:54;2.60;;;2.40;;
37107;SDS011;23019;49.300;6.846;2022-10-16T14:12:34;2.05;;;1.95;;
37107;SDS011;23019;49.300;6.846;2022-10-16T14:14:42;2.72;;;2.53;;
37107;SDS011;23019;49.300;6.846;2022-10-16T14:16:54;2.45;;;2.25;;
37107;SDS011;23019;49.300;6.846;2022-10-16T14:18:59;3.75;;;2.40;;
37107;SDS011;23019;49.300;6.846;2022-10-16T14:21:15;1.95;;;1.85;;
37107;SDS011;23019;49.300;6.846;2022-10-16T14:23:49;3.08;;;2.88;;
37107;SDS011;23019;49.300;6.846;2022-10-16T14:31:32;1.95;;;1.85;;
37107;SDS011;23019;49.300;6.846;2022-10-16T14:33:33;1.83;;;1.73;;
37107;SDS011;23019;49.300;6.846;2022-10-16T14:35:38;1.90;;;1.80;;
37107;SDS011;23019;49.300;6.846;2022-10-16T14:37:40;2.47;;;2.28;;
37107;SDS011;23019;49.300;6.846;2022-10-16T14:39:50;3.53;;;2.58;;
37107;SDS011;23019;49.300;6.846;2022-10-16T14:44:19;2.13;;;2.00;;
37107;SDS011;23019;49.300;6.846;2022-10-16T14:46:31;2.80;;;2.60;;
37107;SDS011;23019;49.300;6.846;2022-10-16T14:51:02;4.00;;;2.33;;
37107;SDS011;23019;49.300;6.846;2022-10-16T14:53:11;2.20;;;2.10;;
37107;SDS011;23019;49.300;6.846;2022-10-16T14:55:18;1.88;;;1.77;;
37107;SDS011;23019;49.300;6.846;2022-10-16T14:57:21;3.30;;;2.13;;
37107;SDS011;23019;49.300;6.846;2022-10-16T15:01:41;2.83;;;2.63;;
37107;SDS011;23019;49.300;6.846;2022-10-16T15:03:58;2.45;;;2.33;;
37107;SDS011;23019;49.300;6.846;2022-10-16T15:05:59;2.13;;;2.03;;
37107;SDS011;23019;49.300;6.846;2022-10-16T15:08:00;2.40;;;2.20;;
37107;SDS011;23019;49.300;6.846;2022-10-16T15:10:01;1.80;;;1.70;;
37107;SDS011;23019;49.300;6.846;2022-10-16T15:12:20;2.20;;;2.10;;
37107;SDS011;23019;49.300;6.846;2022-10-16T15:14:20;3.78;;;2.67;;
37107;SDS011;23019;49.300;6.846;2022-10-16T15:16:31;1.83;;;1.73;;
37107;SDS011;23019;49.300;6.846;2022-10-16T15:21:49;2.15;;;2.05;;
37107;SDS011;23019;49.300;6.846;2022-10-16T15:25:43;1.70;;;1.60;;
37107;SDS011;23019;49.300;6.846;2022-10-16T15:27:45;1.90;;;1.58;;
37107;SDS011;23019;49.300;6.846;2022-10-16T15:30:00;1.48;;;1.38;;
37107;SDS011;23019;49.300;6.846;2022-10-16T15:32:01;1.88;;;1.77;;
37107;SDS011;23019;49.300;6.846;2022-10-16T15:34:05;3.78;;;2.22;;
37107;SDS011;23019;49.300;6.846;2022-10-16T15:36:28;2.08;;;1.98;;
37107;SDS011;23019;49.300;6.846;2022-10-16T15:38:29;2.83;;;1.67;;
37107;SDS011;23019;49.300;6.846;2022-10-16T15:40:30;3.35;;;1.85;;
37107;SDS011;23019;49.300;6.846;2022-10-16T15:42:37;2.08;;;1.98;;
37107;SDS011;23019;49.300;6.846;2022-10-16T15:44:40;2.05;;;1.90;;
37107;SDS011;23019;49.300;6.846;2022-10-16T15:46:52;1.65;;;1.55;;
37107;SDS011;23019;49.300;6.846;2022-10-16T15:49:07;1.98;;;1.85;;
37107;SDS011;23019;49.300;6.846;2022-10-16T15:53:38;1.58;;;1.48;;
37107;SDS011;23019;49.300;6.846;2022-10-16T15:55:41;2.53;;;1.65;;
37107;SDS011;23019;49.300;6.846;2022-10-16T15:57:42;1.48;;;1.38;;
37107;SDS011;23019;49.300;6.846;2022-10-16T15:59:43;1.55;;;1.45;;
37107;SDS011;23019;49.300;6.846;2022-10-16T16:01:58;1.88;;;1.65;;
37107;SDS011;23019;49.300;6.846;2022-10-16T16:04:04;2.17;;;2.05;;
37107;SDS011;23019;49.300;6.846;2022-10-16T16:06:11;1.70;;;1.60;;
37107;SDS011;23019;49.300;6.846;2022-10-16T16:08:13;1.58;;;1.48;;
37107;SDS011;23019;49.300;6.846;2022-10-16T16:10:14;1.73;;;1.63;;
37107;SDS011;23019;49.300;6.846;2022-10-16T16:12:15;1.52;;;1.42;;
37107;SDS011;23019;49.300;6.846;2022-10-16T16:14:24;1.88;;;1.40;;
37107;SDS011;23019;49.300;6.846;2022-10-16T16:16:26;1.65;;;1.55;;
37107;SDS011;23019;49.300;6.846;2022-10-16T16:18:32;1.42;;;1.33;;
37107;SDS011;23019;49.300;6.846;2022-10-16T16:20:39;1.50;;;1.40;;
37107;SDS011;23019;49.300;6.846;2022-10-16T16:22:40;1.80;;;1.70;;
37107;SDS011;23019;49.300;6.846;2022-10-16T16:24:41;1.48;;;1.38;;
37107;SDS011;23019;49.300;6.846;2022-10-16T16:26:53;1.90;;;1.80;;
37107;SDS011;23019;49.300;6.846;2022-10-16T16:28:57;1.60;;;1.50;;
37107;SDS011;23019;49.300;6.846;2022-10-16T16:31:01;1.70;;;1.60;;
37107;SDS011;23019;49.300;6.846;2022-10-16T16:33:02;1.58;;;1.48;;
37107;SDS011;23019;49.300;6.846;2022-10-16T16:37:27;1.30;;;1.20;;
37107;SDS011;23019;49.300;6.846;2022-10-16T16:39:43;1.35;;;1.25;;
37107;SDS011;23019;49.300;6.846;2022-10-16T16:41:58;1.55;;;1.45;;
37107;SDS011;23019;49.300;6.846;2022-10-16T16:44:06;1.38;;;1.27;;
37107;SDS011;23019;49.300;6.846;2022-10-16T16:46:19;1.42;;;1.33;;
37107;SDS011;23019;49.300;6.846;2022-10-16T16:48:21;2.00;;;1.90;;
37107;SDS011;23019;49.300;6.846;2022-10-16T16:50:24;1.33;;;1.23;;
37107;SDS011;23019;49.300;6.846;2022-10-16T16:52:28;1.33;;;1.20;;
37107;SDS011;23019;49.300;6.846;2022-10-16T16:54:29;1.30;;;1.20;;
37107;SDS011;23019;49.300;6.846;2022-10-16T16:56:42;1.25;;;1.20;;
37107;SDS011;23019;49.300;6.846;2022-10-16T16:58:53;1.30;;;1.20;;
37107;SDS011;23019;49.300;6.846;2022-10-16T17:00:54;1.33;;;1.23;;
37107;SDS011;23019;49.300;6.846;2022-10-16T17:02:55;1.42;;;1.33;;
37107;SDS011;23019;49.300;6.846;2022-10-16T17:04:59;1.42;;;1.10;;
37107;SDS011;23019;49.300;6.846;2022-10-16T17:07:00;1.45;;;1.35;;
37107;SDS011;23019;49.300;6.846;2022-10-16T17:09:01;1.48;;;1.38;;
37107;SDS011;23019;49.300;6.846;2022-10-16T17:11:18;1.30;;;1.20;;
37107;SDS011;23019;49.300;6.846;2022-10-16T17:13:27;1.60;;;1.50;;
37107;SDS011;23019;49.300;6.846;2022-10-16T17:15:29;1.52;;;1.20;;
37107;SDS011;23019;49.300;6.846;2022-10-16T17:17:42;1.45;;;1.35;;